createdAt,value
2018-02-20T00:00:45.182Z,-1.96
2018-02-20T00:01:45.181Z,-2.06
2018-02-20T00:02:45.082Z,-2.06
2018-02-20T00:03:45.337Z,-2.11
2018-02-20T00:04:44.985Z,-2.19
2018-02-20T00:05:44.952Z,-2.16
2018-02-20T00:06:44.886Z,-2.18
2018-02-20T00:07:44.838Z,-2.18
2018-02-20T00:08:44.788Z,-2.28
2018-02-20T00:09:45.045Z,-2.18
2018-02-20T00:10:44.690Z,-2.04
2018-02-20T00:11:44.644Z,-2.10
2018-02-20T00:12:44.593Z,-2.16
2018-02-20T00:13:44.545Z,-2.25
2018-02-20T00:14:44.497Z,-2.25
2018-02-20T00:15:44.746Z,-2.28
2018-02-20T00:16:44.398Z,-2.44
2018-02-20T00:17:44.399Z,-2.32
2018-02-20T00:18:44.301Z,-2.44
2018-02-20T00:19:44.251Z,-2.44
2018-02-20T00:20:44.204Z,-2.55
2018-02-20T00:21:44.452Z,-2.53
2018-02-20T00:22:44.101Z,-2.56
2018-02-20T00:23:44.103Z,-2.61
2018-02-20T00:24:44.013Z,-2.66
2018-02-20T00:25:43.961Z,-2.77
2018-02-20T00:26:43.905Z,-2.59
2018-02-20T00:27:44.157Z,-2.59
2018-02-20T00:28:43.808Z,-2.50
2018-02-20T00:29:43.809Z,-2.62
2018-02-20T00:30:43.708Z,-2.59
2018-02-20T00:31:43.660Z,-2.61
2018-02-20T00:32:43.612Z,-2.59
2018-02-20T00:33:43.862Z,-2.50
2018-02-20T00:34:43.520Z,-2.51
2018-02-20T00:35:43.462Z,-2.37
2018-02-20T00:36:43.418Z,-2.51
2018-02-20T00:37:43.365Z,-2.51
2018-02-20T00:38:43.315Z,-2.46
2018-02-20T00:39:43.276Z,-2.55
2018-02-20T00:40:43.521Z,-2.48
2018-02-20T00:41:43.171Z,-2.47
2018-02-20T00:42:43.120Z,-2.56
2018-02-20T00:43:43.075Z,-2.47
2018-02-20T00:44:43.020Z,-2.43
2018-02-20T00:45:42.972Z,-2.44
2018-02-20T00:46:42.923Z,-2.46
2018-02-20T00:47:43.173Z,-2.47
2018-02-20T00:48:42.823Z,-2.51
2018-02-20T00:49:42.776Z,-2.59
2018-02-20T00:50:42.724Z,-2.62
2018-02-20T00:51:42.674Z,-2.58
2018-02-20T00:52:42.626Z,-2.68
2018-02-20T00:54:42.824Z,-2.80
2018-02-20T00:55:42.476Z,-2.79
2018-02-20T00:56:42.431Z,-2.93
2018-02-20T00:57:42.381Z,-2.86
2018-02-20T00:58:42.329Z,-2.76
2018-02-20T00:59:42.278Z,-2.87
2018-02-20T01:00:42.230Z,-2.93
2018-02-20T01:01:42.478Z,-2.89
2018-02-20T01:02:42.131Z,-2.84
2018-02-20T01:03:42.082Z,-2.93
2018-02-20T01:04:42.031Z,-2.89
2018-02-20T01:05:41.982Z,-2.76
2018-02-20T01:06:41.933Z,-2.79
2018-02-20T01:07:41.883Z,-2.65
2018-02-20T01:08:42.134Z,-2.62
2018-02-20T01:09:41.785Z,-2.74
2018-02-20T01:10:41.734Z,-2.82
2018-02-20T01:11:41.686Z,-2.93
2018-02-20T01:12:41.638Z,-2.84
2018-02-20T01:13:41.590Z,-2.86
2018-02-20T01:14:41.537Z,-2.80
2018-02-20T01:15:41.786Z,-2.86
2018-02-20T01:16:41.438Z,-2.84
2018-02-20T01:17:41.388Z,-2.68
2018-02-20T01:18:41.339Z,-2.66
2018-02-20T01:19:41.288Z,-2.65
2018-02-20T01:20:41.239Z,-2.69
2018-02-20T01:21:41.489Z,-2.71
2018-02-20T01:22:41.140Z,-2.65
2018-02-20T01:23:41.090Z,-2.87
2018-02-20T01:24:41.040Z,-2.79
2018-02-20T01:25:40.992Z,-2.84
2018-02-20T01:26:40.944Z,-2.90
2018-02-20T01:27:41.192Z,-2.80
2018-02-20T01:28:40.841Z,-2.89
2018-02-20T01:29:40.795Z,-2.90
2018-02-20T01:30:40.749Z,-2.90
2018-02-20T01:31:40.694Z,-3.01
2018-02-20T01:32:40.645Z,-2.93
2018-02-20T01:33:40.897Z,-2.94
2018-02-20T01:34:40.546Z,-2.93
2018-02-20T01:35:40.543Z,-2.93
2018-02-20T01:36:40.456Z,-2.87
2018-02-20T01:37:40.407Z,-2.82
2018-02-20T01:38:40.344Z,-2.76
2018-02-20T01:39:40.598Z,-2.80
2018-02-20T01:40:40.255Z,-2.80
2018-02-20T01:41:40.403Z,-2.69
2018-02-20T01:42:40.151Z,-2.80
2018-02-20T01:43:40.103Z,-2.77
2018-02-20T01:44:40.050Z,-2.79
2018-02-20T01:45:40.301Z,-2.82
2018-02-20T01:46:39.950Z,-2.82
2018-02-20T01:47:39.900Z,-2.94
2018-02-20T01:48:40.180Z,-2.97
2018-02-20T01:49:39.802Z,-3.07
2018-02-20T01:50:39.751Z,-3.10
2018-02-20T01:51:39.700Z,-3.21
2018-02-20T01:52:39.950Z,-3.18
2018-02-20T01:53:39.603Z,-3.26
2018-02-20T01:54:39.551Z,-3.22
2018-02-20T01:55:39.501Z,-3.16
2018-02-20T01:56:39.453Z,-2.93
2018-02-20T01:57:39.411Z,-2.93
2018-02-20T01:58:39.354Z,-2.87
2018-02-20T01:59:39.603Z,-2.94
2018-02-20T02:00:39.258Z,-2.94
2018-02-20T02:01:39.203Z,-2.97
2018-02-20T02:02:39.157Z,-3.01
2018-02-20T02:03:39.103Z,-3.04
2018-02-20T02:04:39.052Z,-3.02
2018-02-20T02:05:39.005Z,-3.08
2018-02-20T02:06:39.254Z,-3.13
2018-02-20T02:07:38.905Z,-3.13
2018-02-20T02:08:38.955Z,-3.28
2018-02-20T02:09:38.807Z,-3.19
2018-02-20T02:10:38.755Z,-3.16
2018-02-20T02:11:38.705Z,-3.13
2018-02-20T02:12:38.656Z,-3.01
2018-02-20T02:13:38.905Z,-3.04
2018-02-20T02:14:38.555Z,-3.07
2018-02-20T02:15:38.504Z,-3.05
2018-02-20T02:16:38.459Z,-3.13
2018-02-20T02:17:38.407Z,-3.02
2018-02-20T02:18:38.356Z,-3.04
2018-02-20T02:19:38.307Z,-3.02
2018-02-20T02:20:38.560Z,-3.21
2018-02-20T02:21:38.207Z,-3.31
2018-02-20T02:22:38.155Z,-3.25
2018-02-20T02:23:38.104Z,-3.26
2018-02-20T02:24:38.056Z,-3.25
2018-02-20T02:25:38.008Z,-3.21
2018-02-20T02:26:38.258Z,-3.15
2018-02-20T02:27:37.905Z,-3.12
2018-02-20T02:28:37.858Z,-3.22
2018-02-20T02:29:37.809Z,-3.07
2018-02-20T02:30:37.758Z,-3.16
2018-02-20T02:31:37.706Z,-3.18
2018-02-20T02:32:37.960Z,-3.25
2018-02-20T02:33:37.608Z,-3.16
2018-02-20T02:34:37.565Z,-3.15
2018-02-20T02:35:37.513Z,-3.22
2018-02-20T02:36:37.460Z,-3.28
2018-02-20T02:37:37.410Z,-3.23
2018-02-20T02:38:37.656Z,-3.33
2018-02-20T02:39:37.314Z,-3.37
2018-02-20T02:40:37.258Z,-3.43
2018-02-20T02:41:37.208Z,-3.49
2018-02-20T02:42:37.184Z,-3.49
2018-02-20T02:43:37.109Z,-3.47
2018-02-20T02:44:37.397Z,-3.43
2018-02-20T02:45:37.060Z,-3.34
2018-02-20T02:46:36.968Z,-3.30
2018-02-20T02:47:36.908Z,-3.36
2018-02-20T02:48:36.865Z,-3.39
2018-02-20T02:49:36.814Z,-3.46
2018-02-20T02:50:37.069Z,-3.41
2018-02-20T02:51:36.758Z,-3.34
2018-02-20T02:52:36.658Z,-3.40
2018-02-20T02:53:36.611Z,-3.34
2018-02-20T02:54:36.557Z,-3.33
2018-02-20T02:55:36.511Z,-3.31
2018-02-20T02:56:36.460Z,-3.30
2018-02-20T02:57:36.735Z,-3.34
2018-02-20T02:58:36.361Z,-3.46
2018-02-20T02:59:36.310Z,-3.44
2018-02-20T03:00:36.274Z,-3.39
2018-02-20T03:01:36.213Z,-3.44
2018-02-20T03:02:36.161Z,-3.44
2018-02-20T03:03:36.109Z,-3.43
2018-02-20T03:04:36.361Z,-3.47
2018-02-20T03:05:36.013Z,-3.51
2018-02-20T03:06:35.958Z,-3.41
2018-02-20T03:07:35.907Z,-3.52
2018-02-20T03:08:35.908Z,-3.54
2018-02-20T03:09:35.814Z,-3.46
2018-02-20T03:10:35.757Z,-3.34
2018-02-20T03:12:35.957Z,-3.40
2018-02-20T03:13:35.612Z,-3.41
2018-02-20T03:14:35.610Z,-3.21
2018-02-20T03:15:35.511Z,-3.30
2018-02-20T03:16:35.457Z,-3.44
2018-02-20T03:17:35.408Z,-3.39
2018-02-20T03:18:35.356Z,-3.43
2018-02-20T03:19:35.612Z,-3.37
2018-02-20T03:20:35.261Z,-3.51
2018-02-20T03:21:35.209Z,-3.58
2018-02-20T03:22:35.155Z,-3.62
2018-02-20T03:23:35.109Z,-3.58
2018-02-20T03:24:35.059Z,-3.61
2018-02-20T03:25:35.207Z,-3.54
2018-02-20T03:26:35.257Z,-3.52
2018-02-20T03:27:34.910Z,-3.46
2018-02-20T03:28:34.858Z,-3.43
2018-02-20T03:29:34.806Z,-3.47
2018-02-20T03:30:34.759Z,-3.31
2018-02-20T03:31:34.713Z,-3.41
2018-02-20T03:32:34.657Z,-3.46
2018-02-20T03:33:34.907Z,-3.54
2018-02-20T03:34:34.556Z,-3.64
2018-02-20T03:35:34.505Z,-3.62
2018-02-20T03:36:34.456Z,-3.69
2018-02-20T03:37:34.457Z,-3.70
2018-02-20T03:38:34.353Z,-3.64
2018-02-20T03:39:34.606Z,-3.65
2018-02-20T03:40:34.256Z,-3.65
2018-02-20T03:41:34.204Z,-3.59
2018-02-20T03:42:34.156Z,-3.68
2018-02-20T03:43:34.105Z,-3.64
2018-02-20T03:44:34.055Z,-3.64
2018-02-20T03:45:34.508Z,-3.70
2018-02-20T03:46:33.957Z,-3.59
2018-02-20T03:47:33.910Z,-3.54
2018-02-20T03:48:33.854Z,-3.54
2018-02-20T03:49:33.810Z,-3.61
2018-02-20T03:50:33.752Z,-3.52
2018-02-20T03:51:34.004Z,-3.43
2018-02-20T03:52:33.652Z,-3.43
2018-02-20T03:53:33.604Z,-3.43
2018-02-20T03:54:33.552Z,-3.46
2018-02-20T03:55:33.501Z,-3.41
2018-02-20T03:56:33.452Z,-3.47
2018-02-20T03:57:33.704Z,-3.55
2018-02-20T03:58:33.350Z,-3.68
2018-02-20T03:59:33.304Z,-3.58
2018-02-20T04:00:33.250Z,-3.61
2018-02-20T04:01:33.200Z,-3.68
2018-02-20T04:02:33.159Z,-3.69
2018-02-20T04:03:33.400Z,-3.72
2018-02-20T04:04:33.050Z,-3.68
2018-02-20T04:05:33.003Z,-3.68
2018-02-20T04:06:32.955Z,-3.64
2018-02-20T04:07:32.899Z,-3.72
2018-02-20T04:08:32.871Z,-3.70
2018-02-20T04:09:32.826Z,-3.57
2018-02-20T04:10:33.046Z,-3.62
2018-02-20T04:11:32.698Z,-3.62
2018-02-20T04:12:32.647Z,-3.76
2018-02-20T04:13:32.603Z,-3.76
2018-02-20T04:14:32.546Z,-3.69
2018-02-20T04:15:32.497Z,-3.81
2018-02-20T04:16:32.448Z,-3.79
2018-02-20T04:17:32.698Z,-3.70
2018-02-20T04:18:32.346Z,-3.69
2018-02-20T04:19:32.295Z,-3.72
2018-02-20T04:20:32.246Z,-3.74
2018-02-20T04:21:32.194Z,-3.80
2018-02-20T04:22:32.143Z,-3.83
2018-02-20T04:23:32.196Z,-3.84
2018-02-20T04:24:32.349Z,-3.91
2018-02-20T04:25:31.994Z,-3.84
2018-02-20T04:26:31.940Z,-3.59
2018-02-20T04:27:31.890Z,-3.68
2018-02-20T04:28:31.842Z,-3.64
2018-02-20T04:29:31.891Z,-3.61
2018-02-20T04:30:31.748Z,-3.64
2018-02-20T04:31:31.994Z,-3.69
2018-02-20T04:32:31.639Z,-3.70
2018-02-20T04:33:31.594Z,-3.80
2018-02-20T04:34:31.539Z,-3.77
2018-02-20T04:35:31.593Z,-3.81
2018-02-20T04:36:31.441Z,-3.83
2018-02-20T04:37:31.388Z,-3.94
2018-02-20T04:38:31.639Z,-4.01
2018-02-20T04:39:31.287Z,-4.02
2018-02-20T04:40:31.239Z,-4.06
2018-02-20T04:41:31.190Z,-4.10
2018-02-20T04:42:31.134Z,-4.19
2018-02-20T04:43:31.084Z,-4.22
2018-02-20T04:44:31.335Z,-4.26
2018-02-20T04:45:30.984Z,-4.23
2018-02-20T04:46:30.934Z,-4.15
2018-02-20T04:47:30.882Z,-4.12
2018-02-20T04:48:30.832Z,-4.06
2018-02-20T04:49:30.783Z,-4.04
2018-02-20T04:50:31.030Z,-4.13
2018-02-20T04:51:30.880Z,-4.20
2018-02-20T04:52:30.629Z,-4.26
2018-02-20T04:53:30.582Z,-4.28
2018-02-20T04:54:30.530Z,-4.12
2018-02-20T04:55:30.481Z,-4.13
2018-02-20T04:56:30.728Z,-4.10
2018-02-20T04:57:30.430Z,-4.26
2018-02-20T04:58:30.332Z,-4.27
2018-02-20T04:59:30.275Z,-4.27
2018-02-20T05:00:30.228Z,-4.27
2018-02-20T05:01:30.176Z,-4.34
2018-02-20T05:02:30.427Z,-4.33
2018-02-20T05:03:30.075Z,-4.26
2018-02-20T05:04:30.038Z,-4.22
2018-02-20T05:05:29.979Z,-4.28
2018-02-20T05:06:29.928Z,-4.19
2018-02-20T05:07:29.872Z,-4.23
2018-02-20T05:08:30.126Z,-4.30
2018-02-20T05:09:29.771Z,-4.28
2018-02-20T05:10:29.720Z,-4.17
2018-02-20T05:11:29.671Z,-4.26
2018-02-20T05:12:29.624Z,-4.23
2018-02-20T05:13:29.619Z,-4.22
2018-02-20T05:14:29.518Z,-4.07
2018-02-20T05:15:29.771Z,-4.06
2018-02-20T05:16:29.416Z,-4.12
2018-02-20T05:17:29.371Z,-4.10
2018-02-20T05:18:29.317Z,-4.01
2018-02-20T05:19:29.321Z,-4.04
2018-02-20T05:20:29.290Z,-4.12
2018-02-20T05:21:29.165Z,-3.98
2018-02-20T05:22:29.412Z,-3.99
2018-02-20T05:23:29.063Z,-4.09
2018-02-20T05:24:29.011Z,-4.17
2018-02-20T05:25:29.011Z,-4.23
2018-02-20T05:26:28.910Z,-4.23
2018-02-20T05:27:28.860Z,-4.28
2018-02-20T05:28:28.810Z,-4.33
2018-02-20T05:29:29.058Z,-4.40
2018-02-20T05:30:28.709Z,-4.44
2018-02-20T05:31:28.657Z,-4.37
2018-02-20T05:32:28.607Z,-4.36
2018-02-20T05:33:28.560Z,-4.40
2018-02-20T05:34:28.506Z,-4.37
2018-02-20T05:35:28.455Z,-4.37
2018-02-20T05:36:28.705Z,-4.41
2018-02-20T05:37:28.354Z,-4.44
2018-02-20T05:38:28.303Z,-4.41
2018-02-20T05:39:28.252Z,-4.38
2018-02-20T05:40:28.201Z,-4.38
2018-02-20T05:41:28.150Z,-4.36
2018-02-20T05:42:28.106Z,-4.22
2018-02-20T05:43:28.351Z,-4.26
2018-02-20T05:44:27.997Z,-4.37
2018-02-20T05:45:27.948Z,-4.34
2018-02-20T05:46:27.905Z,-4.45
2018-02-20T05:47:27.847Z,-4.46
2018-02-20T05:48:27.794Z,-4.46
2018-02-20T05:49:27.748Z,-4.45
2018-02-20T05:50:27.995Z,-4.38
2018-02-20T05:51:27.680Z,-4.48
2018-02-20T05:52:27.600Z,-4.45
2018-02-20T05:53:27.543Z,-4.40
2018-02-20T05:54:27.490Z,-4.38
2018-02-20T05:55:27.439Z,-4.41
2018-02-20T05:56:27.840Z,-4.33
2018-02-20T05:57:27.340Z,-4.38
2018-02-20T05:58:27.289Z,-4.38
2018-02-20T05:59:27.240Z,-4.40
2018-02-20T06:00:27.185Z,-4.31
2018-02-20T06:01:27.135Z,-4.33
2018-02-20T06:02:27.386Z,-4.23
2018-02-20T06:03:27.038Z,-4.23
2018-02-20T06:04:26.982Z,-4.28
2018-02-20T06:05:26.934Z,-4.26
2018-02-20T06:06:26.882Z,-4.23
2018-02-20T06:07:26.831Z,-4.26
2018-02-20T06:08:27.181Z,-4.30
2018-02-20T06:09:26.783Z,-4.40
2018-02-20T06:10:26.683Z,-4.36
2018-02-20T06:11:26.635Z,-4.41
2018-02-20T06:12:26.577Z,-4.38
2018-02-20T06:13:26.529Z,-4.52
2018-02-20T06:14:26.784Z,-4.56
2018-02-20T06:15:26.433Z,-4.54
2018-02-20T06:16:26.374Z,-4.51
2018-02-20T06:17:26.331Z,-4.54
2018-02-20T06:18:26.277Z,-4.56
2018-02-20T06:19:26.272Z,-4.54
2018-02-20T06:20:26.477Z,-4.51
2018-02-20T06:21:26.120Z,-4.51
2018-02-20T06:22:26.069Z,-4.46
2018-02-20T06:23:26.020Z,-4.46
2018-02-20T06:24:25.967Z,-4.54
2018-02-20T06:25:25.973Z,-4.56
2018-02-20T06:26:25.867Z,-4.55
2018-02-20T06:27:26.121Z,-4.41
2018-02-20T06:28:25.769Z,-4.56
2018-02-20T06:29:25.716Z,-4.65
2018-02-20T06:30:25.663Z,-4.55
2018-02-20T06:31:25.612Z,-4.52
2018-02-20T06:32:25.563Z,-4.49
2018-02-20T06:33:25.514Z,-4.48
2018-02-20T06:34:25.762Z,-4.36
2018-02-20T06:35:25.410Z,-4.37
2018-02-20T06:36:25.363Z,-4.38
2018-02-20T06:37:25.313Z,-4.48
2018-02-20T06:38:25.257Z,-4.49
2018-02-20T06:39:25.209Z,-4.40
2018-02-20T06:40:25.160Z,-4.59
2018-02-20T06:41:25.509Z,-4.55
2018-02-20T06:42:25.054Z,-4.45
2018-02-20T06:43:25.005Z,-4.41
2018-02-20T06:44:24.956Z,-4.40
2018-02-20T06:45:24.908Z,-4.45
2018-02-20T06:46:24.853Z,-4.40
2018-02-20T06:47:24.856Z,-4.38
2018-02-20T06:48:25.057Z,-4.44
2018-02-20T06:49:24.701Z,-4.38
2018-02-20T06:50:24.650Z,-4.37
2018-02-20T06:51:24.599Z,-4.56
2018-02-20T06:52:24.557Z,-4.49
2018-02-20T06:53:24.701Z,-4.45
2018-02-20T06:54:24.446Z,-4.38
2018-02-20T06:55:24.696Z,-4.37
2018-02-20T06:56:24.347Z,-4.33
2018-02-20T06:57:24.300Z,-4.22
2018-02-20T06:58:24.247Z,-4.26
2018-02-20T06:59:24.196Z,-4.12
2018-02-20T07:00:24.144Z,-4.17
2018-02-20T07:01:24.393Z,-4.19
2018-02-20T07:02:24.043Z,-4.13
2018-02-20T07:03:23.996Z,-4.10
2018-02-20T07:04:23.991Z,-4.12
2018-02-20T07:05:23.895Z,-3.97
2018-02-20T07:06:23.890Z,-3.95
2018-02-20T07:07:24.092Z,-3.80
2018-02-20T07:08:23.738Z,-3.83
2018-02-20T07:09:23.689Z,-3.81
2018-02-20T07:10:23.788Z,-3.70
2018-02-20T07:11:23.589Z,-3.62
2018-02-20T07:12:23.538Z,-3.54
2018-02-20T07:13:23.795Z,-3.47
2018-02-20T07:14:23.437Z,-3.46
2018-02-20T07:15:23.387Z,-3.30
2018-02-20T07:16:23.337Z,-3.25
2018-02-20T07:17:23.292Z,-3.22
2018-02-20T07:18:23.235Z,-3.19
2018-02-20T07:19:23.485Z,-3.12
2018-02-20T07:20:23.137Z,-3.19
2018-02-20T07:21:23.136Z,-3.18
2018-02-20T07:22:23.036Z,-3.13
2018-02-20T07:23:22.988Z,-3.10
2018-02-20T07:24:22.955Z,-3.12
2018-02-20T07:25:23.186Z,-2.94
2018-02-20T07:26:22.836Z,-3.02
2018-02-20T07:27:22.885Z,-3.12
2018-02-20T07:28:22.736Z,-2.98
2018-02-20T07:29:22.687Z,-2.97
2018-02-20T07:30:22.636Z,-2.82
2018-02-20T07:31:22.587Z,-2.38
2018-02-20T07:32:22.839Z,-1.80
2018-02-20T07:33:22.539Z,-1.29
2018-02-20T07:34:22.438Z,-0.73
2018-02-20T07:35:22.392Z,-0.30
2018-02-20T07:36:22.339Z,0.07
2018-02-20T07:37:22.291Z,0.28
2018-02-20T07:38:22.244Z,0.63
2018-02-20T07:39:22.495Z,0.89
2018-02-20T07:40:22.152Z,1.14
2018-02-20T07:41:22.110Z,1.61
2018-02-20T07:42:22.049Z,1.86
2018-02-20T07:43:22.002Z,2.23
2018-02-20T07:44:22.205Z,2.44
2018-02-20T07:45:21.907Z,2.63
2018-02-20T07:46:22.170Z,2.80
2018-02-20T07:47:21.815Z,2.97
2018-02-20T07:48:21.769Z,3.23
2018-02-20T07:49:21.736Z,3.50
2018-02-20T07:50:21.781Z,3.88
2018-02-20T07:51:21.631Z,3.96
2018-02-20T07:52:21.783Z,4.10
2018-02-20T07:53:21.839Z,4.25
2018-02-20T07:54:21.491Z,4.44
2018-02-20T07:55:21.452Z,4.53
2018-02-20T07:56:21.404Z,4.39
2018-02-20T07:57:21.360Z,4.65
2018-02-20T07:58:21.415Z,4.67
2018-02-20T07:59:21.269Z,4.90
2018-02-20T08:00:21.528Z,5.02
2018-02-20T08:01:21.191Z,5.30
2018-02-20T08:02:21.149Z,5.44
2018-02-20T08:03:21.096Z,5.67
2018-02-20T08:04:21.108Z,5.90
2018-02-20T08:05:21.012Z,5.90
2018-02-20T08:06:20.972Z,5.99
2018-02-20T08:07:21.225Z,6.03
2018-02-20T08:08:20.881Z,6.01
2018-02-20T08:09:20.838Z,5.83
2018-02-20T08:10:20.798Z,5.78
2018-02-20T08:11:20.753Z,5.65
2018-02-20T08:12:20.719Z,6.06
2018-02-20T08:13:20.968Z,6.78
2018-02-20T08:14:20.627Z,6.81
2018-02-20T08:15:20.592Z,6.93
2018-02-20T08:16:20.548Z,7.01
2018-02-20T08:17:20.507Z,7.16
2018-02-20T08:18:20.463Z,7.15
2018-02-20T08:19:20.769Z,7.07
2018-02-20T08:20:20.382Z,7.21
2018-02-20T08:21:20.338Z,7.29
2018-02-20T08:22:20.299Z,7.51
2018-02-20T08:23:20.258Z,7.60
2018-02-20T08:24:20.221Z,7.60
2018-02-20T08:25:20.476Z,7.44
2018-02-20T08:26:20.140Z,7.52
2018-02-20T08:27:20.150Z,7.52
2018-02-20T08:28:20.207Z,7.79
2018-02-20T08:29:20.016Z,8.10
2018-02-20T08:30:20.026Z,8.25
2018-02-20T08:31:20.240Z,8.31
2018-02-20T08:32:19.959Z,8.45
2018-02-20T08:33:19.909Z,8.43
2018-02-20T08:34:19.818Z,8.07
2018-02-20T08:35:19.830Z,8.22
2018-02-20T08:36:19.792Z,8.43
2018-02-20T08:37:20.249Z,8.70
2018-02-20T08:38:19.668Z,8.82
2018-02-20T08:39:19.620Z,8.80
2018-02-20T08:40:19.638Z,9.32
2018-02-20T08:41:19.607Z,9.22
2018-02-20T08:42:19.505Z,9.50
2018-02-20T08:43:19.785Z,9.42
2018-02-20T08:44:19.734Z,9.70
2018-02-20T08:45:19.498Z,10.14
2018-02-20T08:46:19.661Z,10.26
2018-02-20T08:47:19.318Z,10.52
2018-02-20T08:48:19.325Z,10.70
2018-02-20T08:49:19.239Z,9.98
2018-02-20T08:50:19.448Z,9.56
2018-02-20T08:51:19.468Z,9.30
2018-02-20T08:52:19.225Z,8.96
2018-02-20T08:53:19.142Z,9.27
2018-02-20T08:54:19.049Z,9.59
2018-02-20T08:55:19.015Z,10.38
2018-02-20T08:56:19.024Z,10.84
2018-02-20T08:57:18.937Z,11.28
2018-02-20T08:58:19.202Z,11.08
2018-02-20T08:59:18.864Z,11.30
2018-02-20T09:00:18.977Z,11.02
2018-02-20T09:01:18.838Z,10.28
2018-02-20T09:02:18.754Z,10.55
2018-02-20T09:03:18.918Z,10.76
2018-02-20T09:04:18.677Z,10.94
2018-02-20T09:05:18.950Z,10.55
2018-02-20T09:06:18.606Z,10.46
2018-02-20T09:07:18.568Z,10.58
2018-02-20T09:08:18.536Z,10.66
2018-02-20T09:09:18.496Z,11.19
2018-02-20T09:10:18.459Z,11.19
2018-02-20T09:11:18.421Z,11.06
2018-02-20T09:12:18.685Z,10.68
2018-02-20T09:13:18.403Z,10.24
2018-02-20T09:14:18.315Z,10.75
2018-02-20T09:15:18.386Z,11.12
2018-02-20T09:16:18.342Z,11.72
2018-02-20T09:17:18.257Z,12.18
2018-02-20T09:18:18.371Z,12.46
2018-02-20T09:19:18.436Z,12.37
2018-02-20T09:20:18.104Z,12.37
2018-02-20T09:21:18.268Z,11.84
2018-02-20T09:22:18.030Z,12.04
2018-02-20T09:23:18.001Z,11.81
2018-02-20T09:24:17.986Z,12.29
2018-02-20T09:25:18.276Z,12.15
2018-02-20T09:26:17.992Z,12.05
2018-02-20T09:27:17.857Z,12.08
2018-02-20T09:28:17.872Z,11.01
2018-02-20T09:29:17.785Z,11.75
2018-02-20T09:30:17.952Z,11.81
2018-02-20T09:31:18.011Z,11.93
2018-02-20T09:32:17.679Z,11.98
2018-02-20T09:33:17.693Z,11.97
2018-02-20T09:34:17.618Z,12.23
2018-02-20T09:35:17.774Z,12.33
2018-02-20T09:36:17.549Z,12.36
2018-02-20T09:37:17.804Z,12.51
2018-02-20T09:38:17.478Z,13.22
2018-02-20T09:39:17.433Z,12.87
2018-02-20T09:40:17.397Z,12.51
2018-02-20T09:41:17.415Z,12.41
2018-02-20T09:42:17.330Z,12.63
2018-02-20T09:43:17.595Z,13.14
2018-02-20T09:44:17.266Z,13.66
2018-02-20T09:45:17.529Z,14.17
2018-02-20T09:46:17.198Z,14.31
2018-02-20T09:47:17.163Z,13.43
2018-02-20T09:48:17.332Z,13.21
2018-02-20T09:49:17.400Z,12.33
2018-02-20T09:50:17.062Z,12.69
2018-02-20T09:51:17.203Z,13.38
2018-02-20T09:52:16.991Z,14.49
2018-02-20T09:53:17.007Z,14.63
2018-02-20T09:54:16.923Z,14.93
2018-02-20T09:55:17.196Z,14.63
2018-02-20T09:56:16.909Z,14.41
2018-02-20T09:57:16.829Z,14.26
2018-02-20T09:58:16.843Z,13.96
2018-02-20T09:59:16.762Z,12.92
2018-02-20T10:00:16.729Z,13.83
2018-02-20T10:01:16.749Z,14.21
2018-02-20T10:02:16.961Z,14.12
2018-02-20T10:03:16.827Z,13.98
2018-02-20T10:04:16.594Z,14.61
2018-02-20T10:05:16.613Z,14.34
2018-02-20T10:06:16.579Z,13.48
2018-02-20T10:07:16.497Z,14.02
2018-02-20T10:08:16.517Z,14.09
2018-02-20T10:09:16.732Z,12.31
2018-02-20T10:10:16.448Z,12.66
2018-02-20T10:11:16.416Z,12.48
2018-02-20T10:12:16.337Z,12.96
2018-02-20T10:13:16.358Z,12.38
2018-02-20T10:14:16.269Z,12.77
2018-02-20T10:15:16.287Z,12.54
2018-02-20T10:16:16.561Z,12.38
2018-02-20T10:17:16.172Z,13.13
2018-02-20T10:18:16.289Z,13.81
2018-02-20T10:19:16.112Z,13.31
2018-02-20T10:20:16.127Z,13.35
2018-02-20T10:21:16.093Z,13.44
2018-02-20T10:22:16.009Z,13.04
2018-02-20T10:23:16.387Z,12.00
2018-02-20T10:24:15.946Z,11.82
2018-02-20T10:25:15.962Z,12.55
2018-02-20T10:26:15.930Z,13.14
2018-02-20T10:27:15.848Z,13.54
2018-02-20T10:28:15.866Z,13.81
2018-02-20T10:29:15.787Z,14.06
2018-02-20T10:30:16.048Z,13.88
2018-02-20T10:31:15.873Z,13.06
2018-02-20T10:32:15.684Z,13.27
2018-02-20T10:33:15.857Z,14.17
2018-02-20T10:34:15.676Z,13.17
2018-02-20T10:35:15.641Z,12.59
2018-02-20T10:36:15.555Z,12.79
2018-02-20T10:37:15.830Z,13.38
2018-02-20T10:38:15.546Z,13.41
2018-02-20T10:39:15.611Z,13.73
2018-02-20T10:40:15.426Z,14.23
2018-02-20T10:41:15.395Z,13.90
2018-02-20T10:42:15.360Z,13.46
2018-02-20T10:43:15.629Z,12.88
2018-02-20T10:44:15.348Z,12.62
2018-02-20T10:45:15.267Z,12.67
2018-02-20T10:46:15.394Z,12.49
2018-02-20T10:47:15.201Z,12.99
2018-02-20T10:48:15.220Z,13.65
2018-02-20T10:49:15.490Z,14.46
2018-02-20T10:50:15.267Z,14.45
2018-02-20T10:51:15.177Z,14.13
2018-02-20T10:52:15.054Z,14.90
2018-02-20T10:53:15.058Z,15.51
2018-02-20T10:54:14.977Z,14.08
2018-02-20T10:55:15.242Z,14.34
2018-02-20T10:56:14.913Z,14.67
2018-02-20T10:57:14.880Z,14.66
2018-02-20T10:58:14.947Z,15.13
2018-02-20T10:59:14.984Z,15.00
2018-02-20T11:00:14.786Z,14.90
2018-02-20T11:01:15.057Z,14.79
2018-02-20T11:02:14.724Z,14.69
2018-02-20T11:03:15.746Z,15.35
2018-02-20T11:04:14.761Z,15.84
2018-02-20T11:05:14.632Z,15.93
2018-02-20T11:06:14.899Z,16.18
2018-02-20T11:07:14.944Z,15.95
2018-02-20T11:08:14.595Z,15.05
2018-02-20T11:09:14.582Z,13.94
2018-02-20T11:10:14.475Z,13.80
2018-02-20T11:11:14.500Z,14.83
2018-02-20T11:12:14.417Z,15.27
2018-02-20T11:13:14.710Z,15.19
2018-02-20T11:14:14.402Z,15.60
2018-02-20T11:15:14.322Z,15.76
2018-02-20T11:16:14.345Z,15.85
2018-02-20T11:17:14.262Z,15.31
2018-02-20T11:18:14.285Z,13.17
2018-02-20T11:19:14.500Z,13.35
2018-02-20T11:20:14.468Z,14.35
2018-02-20T11:21:14.200Z,14.59
2018-02-20T11:22:14.111Z,14.60
2018-02-20T11:23:14.137Z,14.42
2018-02-20T11:24:14.193Z,14.24
2018-02-20T11:25:14.013Z,14.56
2018-02-20T11:26:14.031Z,14.27
2018-02-20T11:27:14.259Z,14.38
2018-02-20T11:28:14.117Z,15.07
2018-02-20T11:29:13.943Z,15.12
2018-02-20T11:30:13.869Z,14.67
2018-02-20T11:31:13.876Z,14.27
2018-02-20T11:32:13.799Z,14.66
2018-02-20T11:33:13.962Z,15.12
2018-02-20T11:34:14.039Z,14.19
2018-02-20T11:35:13.751Z,13.94
2018-02-20T11:36:13.761Z,13.69
2018-02-20T11:37:13.640Z,13.99
2018-02-20T11:38:13.809Z,14.52
2018-02-20T11:39:13.725Z,14.94
2018-02-20T11:40:13.549Z,14.87
2018-02-20T11:41:13.810Z,14.63
2018-02-20T11:42:13.478Z,14.91
2018-02-20T11:43:13.513Z,14.80
2018-02-20T11:44:13.617Z,14.54
2018-02-20T11:45:13.388Z,14.64
2018-02-20T11:46:13.411Z,15.05
2018-02-20T11:47:13.322Z,14.80
2018-02-20T11:48:13.596Z,14.39
2018-02-20T11:49:13.306Z,13.90
2018-02-20T11:50:13.235Z,13.76
2018-02-20T11:51:13.245Z,13.21
2018-02-20T11:52:13.161Z,13.71
2018-02-20T11:53:13.356Z,14.11
2018-02-20T11:54:13.159Z,14.30
2018-02-20T11:55:13.381Z,13.73
2018-02-20T11:56:13.093Z,14.20
2018-02-20T11:57:13.004Z,14.41
2018-02-20T11:58:13.079Z,13.81
2018-02-20T11:59:12.993Z,13.81
2018-02-20T12:00:12.913Z,13.93
2018-02-20T12:01:13.186Z,14.82
2018-02-20T12:02:12.851Z,14.16
2018-02-20T12:03:13.021Z,14.29
2018-02-20T12:04:12.845Z,14.27
2018-02-20T12:05:12.752Z,13.96
2018-02-20T12:06:12.820Z,14.30
2018-02-20T12:07:12.991Z,14.49
2018-02-20T12:08:12.728Z,14.61
2018-02-20T12:09:12.688Z,14.90
2018-02-20T12:10:12.640Z,14.54
2018-02-20T12:11:12.622Z,15.09
2018-02-20T12:12:12.628Z,15.49
2018-02-20T12:13:12.806Z,15.19
2018-02-20T12:14:12.522Z,15.86
2018-02-20T12:15:12.453Z,14.13
2018-02-20T12:16:12.467Z,14.42
2018-02-20T12:17:12.701Z,15.19
2018-02-20T12:18:12.386Z,14.49
2018-02-20T12:19:12.713Z,14.11
2018-02-20T12:20:12.324Z,13.47
2018-02-20T12:21:12.296Z,13.96
2018-02-20T12:22:12.265Z,14.13
2018-02-20T12:23:12.376Z,14.06
2018-02-20T12:24:12.301Z,14.82
2018-02-20T12:25:12.412Z,14.94
2018-02-20T12:26:12.278Z,15.37
2018-02-20T12:27:12.105Z,15.41
2018-02-20T12:28:12.068Z,14.79
2018-02-20T12:29:12.033Z,14.49
2018-02-20T12:30:11.953Z,14.56
2018-02-20T12:31:12.220Z,14.31
2018-02-20T12:32:11.935Z,14.24
2018-02-20T12:33:11.913Z,14.69
2018-02-20T12:34:11.874Z,14.69
2018-02-20T12:35:11.788Z,14.26
2018-02-20T12:36:11.807Z,13.59
2018-02-20T12:37:11.786Z,14.17
2018-02-20T12:38:11.996Z,14.23
2018-02-20T12:39:11.746Z,14.61
2018-02-20T12:40:11.627Z,14.01
2018-02-20T12:41:11.791Z,14.94
2018-02-20T12:42:11.726Z,15.30
2018-02-20T12:43:11.645Z,15.05
2018-02-20T12:44:11.543Z,15.19
2018-02-20T12:45:11.763Z,14.69
2018-02-20T12:46:11.475Z,14.74
2018-02-20T12:47:11.593Z,14.67
2018-02-20T12:48:11.370Z,14.56
2018-02-20T12:49:11.335Z,14.13
2018-02-20T12:50:11.344Z,14.45
2018-02-20T12:51:11.351Z,15.13
2018-02-20T12:52:11.533Z,15.23
2018-02-20T12:53:11.193Z,13.44
2018-02-20T12:54:11.362Z,11.26
2018-02-20T12:55:11.127Z,10.93
2018-02-20T12:56:11.152Z,10.84
2018-02-20T12:57:11.257Z,11.11